createdAt,value
2018-08-25T00:04:44.468Z,1.23
2018-08-25T00:09:48.319Z,1.30
2018-08-25T00:14:52.229Z,1.10
2018-08-25T00:19:56.416Z,1.23
2018-08-25T00:25:00.134Z,1.00
2018-08-25T00:30:04.296Z,1.03
2018-08-25T00:35:07.988Z,0.93
2018-08-25T00:40:12.191Z,1.10
2018-08-25T00:45:16.654Z,1.00
2018-08-25T00:50:20.473Z,1.33
2018-08-25T00:55:24.626Z,1.20
2018-08-25T01:00:28.445Z,1.07
2018-08-25T01:05:33.124Z,0.90
2018-08-25T01:10:38.211Z,0.97
2018-08-25T01:15:42.338Z,1.20
2018-08-25T01:20:47.412Z,1.33
2018-08-25T01:25:51.219Z,0.90
2018-08-25T01:30:55.246Z,0.93
2018-08-25T01:35:59.269Z,1.10
2018-08-25T01:41:02.832Z,1.30
2018-08-25T01:46:07.011Z,1.20
2018-08-25T01:51:11.169Z,0.80
2018-08-25T01:56:15.414Z,1.23
2018-08-25T02:01:19.619Z,1.00
2018-08-25T02:06:23.672Z,1.20
2018-08-25T02:11:27.692Z,1.17
2018-08-25T02:16:31.775Z,1.30
2018-08-25T02:21:35.580Z,1.20
2018-08-25T02:26:39.446Z,1.70
2018-08-25T02:31:43.567Z,1.67
2018-08-25T02:36:47.696Z,2.10
2018-08-25T02:41:52.155Z,1.77
2018-08-25T02:46:56.451Z,1.93
2018-08-25T02:52:00.203Z,1.83
2018-08-25T02:57:04.048Z,1.50
2018-08-25T03:02:07.925Z,1.60
2018-08-25T03:07:12.054Z,1.40
2018-08-25T03:12:16.213Z,1.70
2018-08-25T03:17:20.047Z,1.70
2018-08-25T03:22:24.351Z,1.50
2018-08-25T03:27:28.905Z,1.60
2018-08-25T03:32:32.934Z,1.17
2018-08-25T03:37:37.074Z,1.50
2018-08-25T03:42:40.889Z,1.53
2018-08-25T03:47:44.666Z,1.30
2018-08-25T03:52:48.370Z,1.20
2018-08-25T03:57:54.420Z,1.20
2018-08-25T04:02:58.094Z,1.10
2018-08-25T04:08:02.009Z,0.87
2018-08-25T04:13:06.867Z,1.17
2018-08-25T04:18:11.448Z,1.30
2018-08-25T04:23:15.285Z,1.63
2018-08-25T04:28:19.690Z,1.40
2018-08-25T04:33:23.407Z,1.30
2018-08-25T04:38:27.202Z,1.40
2018-08-25T04:43:31.125Z,1.23
2018-08-25T04:48:36.155Z,1.30
2018-08-25T04:53:40.003Z,1.33
2018-08-25T04:58:44.938Z,1.20
2018-08-25T05:03:48.952Z,0.97
2018-08-25T05:09:11.177Z,1.07
2018-08-25T05:14:15.068Z,1.17
2018-08-25T05:19:42.498Z,1.20
2018-08-25T05:24:46.431Z,1.47
2018-08-25T05:29:50.236Z,1.30
2018-08-25T05:34:54.848Z,1.50
2018-08-25T05:39:58.812Z,1.47
2018-08-25T05:45:03.270Z,1.70
2018-08-25T05:50:07.052Z,2.20
2018-08-25T05:55:10.795Z,2.13
2018-08-25T06:00:14.757Z,2.50
2018-08-25T06:05:18.451Z,2.40
2018-08-25T06:10:41.728Z,2.70
2018-08-25T06:15:45.870Z,2.80
2018-08-25T06:20:50.029Z,3.00
2018-08-25T06:25:53.796Z,3.20
2018-08-25T06:30:57.853Z,3.40
2018-08-25T06:36:01.809Z,3.00
2018-08-25T06:41:06.119Z,3.33
2018-08-25T06:46:11.111Z,3.63
2018-08-25T06:51:14.898Z,3.80
2018-08-25T06:56:18.843Z,3.60
2018-08-25T07:01:22.827Z,4.10
2018-08-25T07:06:31.816Z,3.80
2018-08-25T07:11:35.776Z,3.83
2018-08-25T07:16:40.757Z,3.77
2018-08-25T07:21:44.857Z,3.20
2018-08-25T07:26:49.292Z,2.60
2018-08-25T07:31:53.671Z,3.10
2018-08-25T07:36:57.690Z,3.13
2018-08-25T07:42:01.485Z,3.30
2018-08-25T07:47:05.332Z,3.07
2018-08-25T07:52:09.652Z,3.30
2018-08-25T07:57:13.217Z,4.10
2018-08-25T08:02:17.370Z,4.00
2018-08-25T08:07:21.824Z,4.80
2018-08-25T08:12:26.033Z,3.90
2018-08-25T08:17:30.083Z,3.87
2018-08-25T08:22:48.170Z,3.80
2018-08-25T08:28:16.108Z,3.80
2018-08-25T08:33:20.178Z,3.30
2018-08-25T08:38:24.387Z,4.10
2018-08-25T08:43:28.220Z,3.73
2018-08-25T08:48:38.070Z,3.10
2018-08-25T08:53:41.853Z,2.40
2018-08-25T08:58:57.605Z,3.70
2018-08-25T09:04:01.406Z,3.50
2018-08-25T09:09:09.341Z,3.90
2018-08-25T09:14:13.028Z,2.90
2018-08-25T09:19:20.924Z,2.30
2018-08-25T09:24:24.867Z,2.30
2018-08-25T09:29:35.102Z,2.07
2018-08-25T09:34:39.223Z,1.63
2018-08-25T09:39:43.466Z,1.50
2018-08-25T09:44:48.092Z,1.10
2018-08-25T09:49:52.483Z,1.00
2018-08-25T09:54:56.879Z,0.80
2018-08-25T10:00:01.125Z,1.40
2018-08-25T10:05:04.837Z,1.40
2018-08-25T10:10:08.887Z,1.03
2018-08-25T10:15:12.461Z,0.83
2018-08-25T10:20:16.735Z,0.77
2018-08-25T10:25:21.076Z,1.20
2018-08-25T10:30:24.780Z,1.00
2018-08-25T10:35:28.726Z,0.80
2018-08-25T10:40:32.516Z,0.80
2018-08-25T10:45:36.551Z,1.60
2018-08-25T10:50:40.427Z,1.10
2018-08-25T10:55:44.211Z,1.50
2018-08-25T11:00:48.385Z,4.03
2018-08-25T11:05:51.881Z,1.90
2018-08-25T11:10:55.795Z,0.80
2018-08-25T11:15:59.766Z,0.90
2018-08-25T11:21:03.768Z,1.00
2018-08-25T11:26:08.056Z,1.00
2018-08-25T11:31:11.912Z,1.10
2018-08-25T11:36:15.948Z,1.00
2018-08-25T11:41:19.844Z,1.20
2018-08-25T11:46:23.642Z,2.00
2018-08-25T11:51:27.615Z,2.70
2018-08-25T11:56:31.345Z,2.17
2018-08-25T12:01:35.156Z,2.13
2018-08-25T12:06:38.960Z,2.40
2018-08-25T12:11:42.869Z,2.13
2018-08-25T12:16:46.806Z,2.00
2018-08-25T12:21:50.739Z,2.50
2018-08-25T12:26:56.400Z,2.13
2018-08-25T12:32:00.527Z,2.73
2018-08-25T12:37:04.617Z,4.23
2018-08-25T12:42:08.454Z,3.60
2018-08-25T12:47:12.089Z,3.53
2018-08-25T12:52:15.902Z,3.07
2018-08-25T12:57:20.428Z,2.17
2018-08-25T13:02:24.162Z,2.10
2018-08-25T13:07:28.164Z,1.20
2018-08-25T13:12:32.107Z,1.20
2018-08-25T13:17:36.195Z,1.20
2018-08-25T13:22:40.044Z,1.10
2018-08-25T13:27:58.103Z,1.20
2018-08-25T13:33:01.947Z,1.10
2018-08-25T13:43:38.709Z,1.00
2018-08-25T13:54:16.895Z,0.60
2018-08-25T14:04:54.342Z,0.70
2018-08-25T14:09:58.453Z,0.77
2018-08-25T14:15:02.529Z,0.60
2018-08-25T14:20:06.235Z,1.10
2018-08-25T14:25:10.070Z,0.83
2018-08-25T14:30:13.890Z,0.83
2018-08-25T14:35:17.673Z,1.10
2018-08-25T14:40:21.616Z,0.80
2018-08-25T14:45:25.482Z,0.87
2018-08-25T14:50:29.279Z,0.90
2018-08-25T14:55:33.516Z,0.80
2018-08-25T15:00:38.696Z,0.63
2018-08-25T15:05:43.116Z,0.60
2018-08-25T15:10:47.115Z,0.70
2018-08-25T15:15:51.512Z,0.70
2018-08-25T15:20:56.425Z,0.77
2018-08-25T15:26:00.402Z,0.60
2018-08-25T15:31:04.179Z,0.70
2018-08-25T15:36:07.837Z,0.87
2018-08-25T15:41:11.896Z,0.40
2018-08-25T15:46:15.630Z,1.30
2018-08-25T15:51:20.407Z,0.83
2018-08-25T15:56:24.204Z,0.80
2018-08-25T16:01:28.251Z,0.70
2018-08-25T16:06:32.053Z,0.97
2018-08-25T16:11:35.890Z,0.70
2018-08-25T16:16:40.491Z,0.90
2018-08-25T16:21:44.539Z,0.80
2018-08-25T16:26:48.295Z,0.90
2018-08-25T16:31:51.923Z,0.50
2018-08-25T16:36:56.019Z,0.80
2018-08-25T16:42:00.144Z,0.80
2018-08-25T16:47:03.907Z,0.83
2018-08-25T16:52:07.706Z,1.10
2018-08-25T16:57:12.088Z,0.80
2018-08-25T17:02:16.248Z,0.60
2018-08-25T17:07:20.216Z,0.40
2018-08-25T17:12:24.164Z,0.63
2018-08-25T17:17:28.261Z,0.80
2018-08-25T17:22:32.240Z,0.53
2018-08-25T17:27:36.133Z,0.40
2018-08-25T17:32:40.260Z,0.50
2018-08-25T17:37:44.169Z,0.77
2018-08-25T17:42:48.058Z,0.70
2018-08-25T17:47:52.333Z,1.67
2018-08-25T17:52:56.521Z,1.10
2018-08-25T17:58:00.258Z,0.90
2018-08-25T18:03:04.099Z,0.80
2018-08-25T18:08:07.984Z,0.73
2018-08-25T18:13:12.196Z,0.70
2018-08-25T18:18:18.677Z,0.83
2018-08-25T18:23:22.439Z,0.90
2018-08-25T18:28:42.897Z,1.00
2018-08-25T18:33:46.751Z,0.70
2018-08-25T18:38:50.879Z,0.80
2018-08-25T18:43:55.071Z,0.60
2018-08-25T18:49:00.283Z,0.50
2018-08-25T18:54:04.128Z,0.60
2018-08-25T18:59:08.360Z,0.50
2018-08-25T19:04:12.669Z,0.60
2018-08-25T19:09:33.146Z,0.50
2018-08-25T19:14:37.636Z,0.50
2018-08-25T19:19:41.712Z,0.60
2018-08-25T19:24:45.890Z,0.70
2018-08-25T19:29:50.333Z,0.60
2018-08-25T19:34:54.764Z,0.60
2018-08-25T19:39:58.519Z,0.50
2018-08-25T19:45:02.220Z,0.30
2018-08-25T19:50:06.213Z,0.60
2018-08-25T19:55:10.259Z,0.60
2018-08-25T20:00:14.380Z,0.60
2018-08-25T20:05:18.222Z,0.77
2018-08-25T20:10:23.090Z,0.73
2018-08-25T20:15:27.247Z,0.53
2018-08-25T20:20:31.116Z,0.50
2018-08-25T20:25:35.013Z,0.60
2018-08-25T20:30:45.460Z,0.80
2018-08-25T20:35:49.620Z,0.97
2018-08-25T20:40:53.380Z,0.70
2018-08-25T20:45:57.441Z,1.03
2018-08-25T20:51:02.013Z,1.27
2018-08-25T20:56:06.013Z,1.50
2018-08-25T21:01:09.956Z,1.43
2018-08-25T21:06:14.007Z,1.50
2018-08-25T21:11:17.978Z,1.20
2018-08-25T21:16:21.735Z,1.37
2018-08-25T21:21:25.572Z,1.47
2018-08-25T21:26:29.541Z,1.23
2018-08-25T21:31:33.987Z,1.10
2018-08-25T21:36:37.901Z,1.63
2018-08-25T21:41:42.786Z,1.37
2018-08-25T21:52:14.701Z,1.57
2018-08-25T21:57:18.744Z,1.10
2018-08-25T22:02:22.711Z,1.20
2018-08-25T22:07:26.731Z,1.50
2018-08-25T22:12:30.537Z,1.70
2018-08-25T22:17:34.952Z,1.47
2018-08-25T22:22:39.420Z,1.60
2018-08-25T22:27:43.563Z,2.00
2018-08-25T22:32:47.595Z,2.00
2018-08-25T22:37:52.565Z,1.87
2018-08-25T22:42:56.369Z,1.90
2018-08-25T22:48:00.756Z,1.90
2018-08-25T22:53:04.771Z,2.00
2018-08-25T22:58:08.510Z,2.13
2018-08-25T23:03:13.168Z,1.90
2018-08-25T23:08:26.286Z,2.20
2018-08-25T23:13:30.162Z,2.20
2018-08-25T23:18:34.175Z,2.10
2018-08-25T23:23:38.377Z,2.43
2018-08-25T23:28:42.508Z,2.10
2018-08-25T23:33:46.799Z,2.27
2018-08-25T23:38:50.613Z,2.33
2018-08-25T23:43:54.724Z,2.30
2018-08-25T23:48:58.532Z,2.10
2018-08-25T23:54:02.476Z,2.07
2018-08-25T23:59:07.089Z,2.50
